sensor_id;sensor_type;location;lat;lon;timestamp;P1;durP1;ratioP1;P2;durP2;ratioP2
59024;SDS011;44806;48.008;13.666;2023-05-28T00:01:01;7.05;;;1.70;;
59024;SDS011;44806;48.008;13.666;2023-05-28T00:03:28;8.07;;;2.30;;
59024;SDS011;44806;48.008;13.666;2023-05-28T00:05:58;9.43;;;2.22;;
59024;SDS011;44806;48.008;13.666;2023-05-28T00:08:24;9.55;;;2.67;;
59024;SDS011;44806;48.008;13.666;2023-05-28T00:10:51;7.20;;;1.75;;
59024;SDS011;44806;48.008;13.666;2023-05-28T00:13:24;8.68;;;2.42;;
59024;SDS011;44806;48.008;13.666;2023-05-28T00:15:52;6.03;;;1.70;;
59024;SDS011;44806;48.008;13.666;2023-05-28T00:18:19;5.78;;;2.15;;
59024;SDS011;44806;48.008;13.666;2023-05-28T00:20:46;7.57;;;2.05;;
59024;SDS011;44806;48.008;13.666;2023-05-28T00:23:16;7.93;;;2.00;;
59024;SDS011;44806;48.008;13.666;2023-05-28T00:25:43;5.63;;;1.80;;
59024;SDS011;44806;48.008;13.666;2023-05-28T00:28:10;8.00;;;2.22;;
59024;SDS011;44806;48.008;13.666;2023-05-28T00:30:37;6.32;;;2.05;;
59024;SDS011;44806;48.008;13.666;2023-05-28T00:33:04;5.20;;;1.90;;
59024;SDS011;44806;48.008;13.666;2023-05-28T00:35:31;6.43;;;1.90;;
59024;SDS011;44806;48.008;13.666;2023-05-28T00:37:58;5.15;;;1.75;;
59024;SDS011;44806;48.008;13.666;2023-05-28T00:40:26;5.65;;;1.95;;
59024;SDS011;44806;48.008;13.666;2023-05-28T00:42:53;6.95;;;2.17;;
59024;SDS011;44806;48.008;13.666;2023-05-28T00:45:20;13.65;;;2.65;;
59024;SDS011;44806;48.008;13.666;2023-05-28T00:47:47;11.15;;;2.40;;
59024;SDS011;44806;48.008;13.666;2023-05-28T00:50:15;9.93;;;2.42;;
59024;SDS011;44806;48.008;13.666;2023-05-28T00:52:43;5.03;;;1.98;;
59024;SDS011;44806;48.008;13.666;2023-05-28T00:55:14;8.43;;;2.38;;
59024;SDS011;44806;48.008;13.666;2023-05-28T00:57:43;7.55;;;2.25;;
59024;SDS011;44806;48.008;13.666;2023-05-28T01:00:12;12.70;;;1.90;;
59024;SDS011;44806;48.008;13.666;2023-05-28T01:02:41;5.47;;;1.98;;
59024;SDS011;44806;48.008;13.666;2023-05-28T01:05:08;5.32;;;1.77;;
59024;SDS011;44806;48.008;13.666;2023-05-28T01:07:35;7.13;;;1.73;;
59024;SDS011;44806;48.008;13.666;2023-05-28T01:10:03;9.45;;;2.25;;
59024;SDS011;44806;48.008;13.666;2023-05-28T01:12:31;5.07;;;2.17;;
59024;SDS011;44806;48.008;13.666;2023-05-28T01:15:00;9.65;;;2.60;;
59024;SDS011;44806;48.008;13.666;2023-05-28T01:17:27;9.68;;;2.88;;
59024;SDS011;44806;48.008;13.666;2023-05-28T01:19:55;7.03;;;2.30;;
59024;SDS011;44806;48.008;13.666;2023-05-28T01:22:24;4.90;;;1.60;;
59024;SDS011;44806;48.008;13.666;2023-05-28T01:24:56;6.32;;;2.20;;
59024;SDS011;44806;48.008;13.666;2023-05-28T01:27:25;7.22;;;2.13;;
59024;SDS011;44806;48.008;13.666;2023-05-28T01:29:53;9.55;;;1.67;;
59024;SDS011;44806;48.008;13.666;2023-05-28T01:32:20;5.05;;;1.52;;
59024;SDS011;44806;48.008;13.666;2023-05-28T01:34:47;6.90;;;1.58;;
59024;SDS011;44806;48.008;13.666;2023-05-28T01:37:14;7.20;;;2.08;;
59024;SDS011;44806;48.008;13.666;2023-05-28T01:39:44;7.05;;;2.40;;
59024;SDS011;44806;48.008;13.666;2023-05-28T01:42:15;4.38;;;1.65;;
59024;SDS011;44806;48.008;13.666;2023-05-28T01:44:43;4.70;;;1.80;;
59024;SDS011;44806;48.008;13.666;2023-05-28T01:47:11;7.43;;;1.45;;
59024;SDS011;44806;48.008;13.666;2023-05-28T01:49:39;10.02;;;1.60;;
59024;SDS011;44806;48.008;13.666;2023-05-28T01:52:07;6.90;;;2.17;;
59024;SDS011;44806;48.008;13.666;2023-05-28T01:54:34;10.27;;;2.65;;
59024;SDS011;44806;48.008;13.666;2023-05-28T01:57:01;12.25;;;2.17;;
59024;SDS011;44806;48.008;13.666;2023-05-28T01:59:30;6.97;;;1.75;;
59024;SDS011;44806;48.008;13.666;2023-05-28T02:02:00;5.13;;;2.25;;
59024;SDS011;44806;48.008;13.666;2023-05-28T02:04:27;5.40;;;1.60;;
59024;SDS011;44806;48.008;13.666;2023-05-28T02:06:54;4.35;;;1.50;;
59024;SDS011;44806;48.008;13.666;2023-05-28T02:09:20;7.85;;;2.00;;
59024;SDS011;44806;48.008;13.666;2023-05-28T02:11:47;5.95;;;2.08;;
59024;SDS011;44806;48.008;13.666;2023-05-28T02:14:14;8.23;;;1.65;;
59024;SDS011;44806;48.008;13.666;2023-05-28T02:16:44;8.80;;;2.22;;
59024;SDS011;44806;48.008;13.666;2023-05-28T02:19:13;6.07;;;2.03;;
59024;SDS011;44806;48.008;13.666;2023-05-28T02:21:41;5.35;;;1.25;;
59024;SDS011;44806;48.008;13.666;2023-05-28T02:24:08;4.00;;;1.50;;
59024;SDS011;44806;48.008;13.666;2023-05-28T02:26:35;4.85;;;1.35;;
59024;SDS011;44806;48.008;13.666;2023-05-28T02:29:02;8.32;;;2.30;;
59024;SDS011;44806;48.008;13.666;2023-05-28T02:34:41;8.48;;;2.17;;
59024;SDS011;44806;48.008;13.666;2023-05-28T02:37:08;6.25;;;1.88;;
59024;SDS011;44806;48.008;13.666;2023-05-28T02:39:35;6.55;;;1.95;;
59024;SDS011;44806;48.008;13.666;2023-05-28T02:42:02;6.50;;;1.88;;
59024;SDS011;44806;48.008;13.666;2023-05-28T02:44:30;3.78;;;1.45;;
59024;SDS011;44806;48.008;13.666;2023-05-28T02:46:57;4.50;;;1.48;;
59024;SDS011;44806;48.008;13.666;2023-05-28T02:49:24;6.10;;;1.63;;
59024;SDS011;44806;48.008;13.666;2023-05-28T02:51:52;5.53;;;1.95;;
59024;SDS011;44806;48.008;13.666;2023-05-28T02:54:19;8.27;;;2.20;;
59024;SDS011;44806;48.008;13.666;2023-05-28T02:56:46;5.43;;;1.80;;
59024;SDS011;44806;48.008;13.666;2023-05-28T02:59:13;5.72;;;1.67;;
59024;SDS011;44806;48.008;13.666;2023-05-28T03:01:40;4.55;;;1.52;;
59024;SDS011;44806;48.008;13.666;2023-05-28T03:04:07;6.78;;;2.08;;
59024;SDS011;44806;48.008;13.666;2023-05-28T03:06:34;3.85;;;1.58;;
59024;SDS011;44806;48.008;13.666;2023-05-28T03:09:03;4.35;;;1.65;;
59024;SDS011;44806;48.008;13.666;2023-05-28T03:11:33;7.10;;;2.00;;
59024;SDS011;44806;48.008;13.666;2023-05-28T03:14:00;5.25;;;1.90;;
59024;SDS011;44806;48.008;13.666;2023-05-28T03:16:27;7.75;;;2.60;;
59024;SDS011;44806;48.008;13.666;2023-05-28T03:18:57;7.28;;;2.20;;
59024;SDS011;44806;48.008;13.666;2023-05-28T03:21:25;8.88;;;1.50;;
59024;SDS011;44806;48.008;13.666;2023-05-28T03:23:52;5.45;;;2.13;;
59024;SDS011;44806;48.008;13.666;2023-05-28T03:26:20;4.65;;;1.33;;
59024;SDS011;44806;48.008;13.666;2023-05-28T03:28:47;6.78;;;1.58;;
59024;SDS011;44806;48.008;13.666;2023-05-28T03:31:14;5.80;;;1.90;;
59024;SDS011;44806;48.008;13.666;2023-05-28T03:33:41;6.68;;;2.15;;
59024;SDS011;44806;48.008;13.666;2023-05-28T03:36:08;5.35;;;2.10;;
59024;SDS011;44806;48.008;13.666;2023-05-28T03:38:35;5.55;;;2.05;;
59024;SDS011;44806;48.008;13.666;2023-05-28T03:41:02;7.60;;;1.90;;
59024;SDS011;44806;48.008;13.666;2023-05-28T03:43:33;5.53;;;1.73;;
59024;SDS011;44806;48.008;13.666;2023-05-28T03:46:00;9.23;;;2.63;;
59024;SDS011;44806;48.008;13.666;2023-05-28T03:48:27;4.47;;;1.85;;
59024;SDS011;44806;48.008;13.666;2023-05-28T03:50:54;5.68;;;1.88;;
59024;SDS011;44806;48.008;13.666;2023-05-28T03:53:22;6.47;;;1.58;;
59024;SDS011;44806;48.008;13.666;2023-05-28T03:55:48;8.52;;;1.45;;
59024;SDS011;44806;48.008;13.666;2023-05-28T03:58:16;3.58;;;1.80;;
59024;SDS011;44806;48.008;13.666;2023-05-28T04:00:44;7.78;;;1.75;;
59024;SDS011;44806;48.008;13.666;2023-05-28T04:03:11;6.78;;;1.92;;
59024;SDS011;44806;48.008;13.666;2023-05-28T04:05:39;8.52;;;1.90;;
59024;SDS011;44806;48.008;13.666;2023-05-28T04:08:07;9.00;;;1.40;;
59024;SDS011;44806;48.008;13.666;2023-05-28T04:10:34;8.32;;;1.90;;
59024;SDS011;44806;48.008;13.666;2023-05-28T04:13:01;5.10;;;1.77;;
59024;SDS011;44806;48.008;13.666;2023-05-28T04:15:28;10.25;;;1.67;;
59024;SDS011;44806;48.008;13.666;2023-05-28T04:17:56;8.75;;;2.67;;
59024;SDS011;44806;48.008;13.666;2023-05-28T04:20:23;6.20;;;1.83;;
59024;SDS011;44806;48.008;13.666;2023-05-28T04:22:50;5.03;;;1.65;;
59024;SDS011;44806;48.008;13.666;2023-05-28T04:25:17;6.18;;;1.73;;
59024;SDS011;44806;48.008;13.666;2023-05-28T04:27:45;7.47;;;2.20;;
59024;SDS011;44806;48.008;13.666;2023-05-28T04:30:12;4.30;;;1.10;;
59024;SDS011;44806;48.008;13.666;2023-05-28T04:32:39;3.47;;;1.40;;
59024;SDS011;44806;48.008;13.666;2023-05-28T04:35:08;7.10;;;1.77;;
59024;SDS011;44806;48.008;13.666;2023-05-28T04:37:36;8.57;;;2.05;;
59024;SDS011;44806;48.008;13.666;2023-05-28T04:40:05;4.20;;;1.50;;
59024;SDS011;44806;48.008;13.666;2023-05-28T04:42:34;4.25;;;1.55;;
59024;SDS011;44806;48.008;13.666;2023-05-28T04:45:01;8.32;;;1.88;;
59024;SDS011;44806;48.008;13.666;2023-05-28T04:47:28;8.85;;;2.67;;
59024;SDS011;44806;48.008;13.666;2023-05-28T04:49:55;5.55;;;1.80;;
59024;SDS011;44806;48.008;13.666;2023-05-28T04:52:25;7.55;;;2.22;;
59024;SDS011;44806;48.008;13.666;2023-05-28T04:54:52;6.68;;;2.65;;
59024;SDS011;44806;48.008;13.666;2023-05-28T04:57:20;6.47;;;1.75;;
59024;SDS011;44806;48.008;13.666;2023-05-28T04:59:47;7.47;;;1.73;;
59024;SDS011;44806;48.008;13.666;2023-05-28T05:02:14;4.60;;;1.55;;
59024;SDS011;44806;48.008;13.666;2023-05-28T05:04:43;4.30;;;1.08;;
59024;SDS011;44806;48.008;13.666;2023-05-28T05:07:10;4.40;;;1.90;;
59024;SDS011;44806;48.008;13.666;2023-05-28T05:09:39;5.70;;;1.50;;
59024;SDS011;44806;48.008;13.666;2023-05-28T05:12:07;5.43;;;1.90;;
59024;SDS011;44806;48.008;13.666;2023-05-28T05:14:34;5.43;;;1.65;;
59024;SDS011;44806;48.008;13.666;2023-05-28T05:17:02;4.78;;;1.33;;
59024;SDS011;44806;48.008;13.666;2023-05-28T05:19:31;3.80;;;1.08;;
59024;SDS011;44806;48.008;13.666;2023-05-28T05:21:58;9.88;;;2.15;;
59024;SDS011;44806;48.008;13.666;2023-05-28T05:24:26;6.68;;;1.77;;
59024;SDS011;44806;48.008;13.666;2023-05-28T05:26:54;6.13;;;1.60;;
59024;SDS011;44806;48.008;13.666;2023-05-28T05:29:21;4.93;;;1.40;;
59024;SDS011;44806;48.008;13.666;2023-05-28T05:31:49;6.13;;;1.98;;
59024;SDS011;44806;48.008;13.666;2023-05-28T05:34:16;5.70;;;1.50;;
59024;SDS011;44806;48.008;13.666;2023-05-28T05:36:43;10.38;;;1.83;;
59024;SDS011;44806;48.008;13.666;2023-05-28T05:39:09;4.22;;;1.23;;
59024;SDS011;44806;48.008;13.666;2023-05-28T05:41:36;7.10;;;1.35;;
59024;SDS011;44806;48.008;13.666;2023-05-28T05:44:05;6.65;;;1.85;;
59024;SDS011;44806;48.008;13.666;2023-05-28T05:46:32;8.35;;;1.80;;
59024;SDS011;44806;48.008;13.666;2023-05-28T05:48:59;4.40;;;1.63;;
59024;SDS011;44806;48.008;13.666;2023-05-28T05:51:26;6.07;;;1.73;;
59024;SDS011;44806;48.008;13.666;2023-05-28T05:53:53;10.15;;;1.70;;
59024;SDS011;44806;48.008;13.666;2023-05-28T05:56:19;5.07;;;2.03;;
59024;SDS011;44806;48.008;13.666;2023-05-28T05:58:46;9.05;;;2.05;;
59024;SDS011;44806;48.008;13.666;2023-05-28T06:01:16;5.30;;;1.88;;
59024;SDS011;44806;48.008;13.666;2023-05-28T06:03:43;8.25;;;1.88;;
59024;SDS011;44806;48.008;13.666;2023-05-28T06:06:10;7.78;;;2.28;;
59024;SDS011;44806;48.008;13.666;2023-05-28T06:08:38;6.07;;;1.67;;
59024;SDS011;44806;48.008;13.666;2023-05-28T06:11:05;5.00;;;1.95;;
59024;SDS011;44806;48.008;13.666;2023-05-28T06:13:32;5.07;;;1.60;;
59024;SDS011;44806;48.008;13.666;2023-05-28T06:16:00;6.30;;;1.98;;
59024;SDS011;44806;48.008;13.666;2023-05-28T06:18:30;7.47;;;2.15;;
59024;SDS011;44806;48.008;13.666;2023-05-28T06:20:57;5.97;;;1.95;;
59024;SDS011;44806;48.008;13.666;2023-05-28T06:23:24;8.35;;;1.73;;
59024;SDS011;44806;48.008;13.666;2023-05-28T06:25:51;5.75;;;2.00;;
59024;SDS011;44806;48.008;13.666;2023-05-28T06:28:18;6.30;;;1.77;;
59024;SDS011;44806;48.008;13.666;2023-05-28T06:30:45;6.22;;;2.25;;
59024;SDS011;44806;48.008;13.666;2023-05-28T06:33:12;6.57;;;1.90;;
59024;SDS011;44806;48.008;13.666;2023-05-28T06:35:41;8.07;;;2.15;;
59024;SDS011;44806;48.008;13.666;2023-05-28T06:38:08;4.50;;;1.73;;
59024;SDS011;44806;48.008;13.666;2023-05-28T06:40:35;5.63;;;1.80;;
59024;SDS011;44806;48.008;13.666;2023-05-28T06:43:02;5.80;;;1.42;;
59024;SDS011;44806;48.008;13.666;2023-05-28T06:45:29;9.10;;;2.33;;
59024;SDS011;44806;48.008;13.666;2023-05-28T06:47:58;4.47;;;1.58;;
59024;SDS011;44806;48.008;13.666;2023-05-28T06:50:25;5.85;;;1.90;;
59024;SDS011;44806;48.008;13.666;2023-05-28T06:52:53;8.45;;;1.80;;
59024;SDS011;44806;48.008;13.666;2023-05-28T06:55:21;7.05;;;1.90;;
59024;SDS011;44806;48.008;13.666;2023-05-28T06:57:48;5.25;;;1.80;;
59024;SDS011;44806;48.008;13.666;2023-05-28T07:00:15;7.32;;;2.08;;
59024;SDS011;44806;48.008;13.666;2023-05-28T07:02:43;6.97;;;1.70;;
59024;SDS011;44806;48.008;13.666;2023-05-28T07:05:11;7.50;;;2.40;;
59024;SDS011;44806;48.008;13.666;2023-05-28T07:07:38;8.98;;;2.10;;
59024;SDS011;44806;48.008;13.666;2023-05-28T07:10:07;7.70;;;1.67;;
59024;SDS011;44806;48.008;13.666;2023-05-28T07:12:35;10.88;;;2.00;;
59024;SDS011;44806;48.008;13.666;2023-05-28T07:15:02;5.03;;;1.85;;
59024;SDS011;44806;48.008;13.666;2023-05-28T07:17:31;9.25;;;1.98;;
59024;SDS011;44806;48.008;13.666;2023-05-28T07:19:58;4.45;;;1.30;;
59024;SDS011;44806;48.008;13.666;2023-05-28T07:22:25;9.55;;;1.90;;
59024;SDS011;44806;48.008;13.666;2023-05-28T07:24:52;7.30;;;1.70;;
59024;SDS011;44806;48.008;13.666;2023-05-28T07:27:20;5.00;;;1.85;;
59024;SDS011;44806;48.008;13.666;2023-05-28T07:29:47;8.93;;;1.80;;
59024;SDS011;44806;48.008;13.666;2023-05-28T07:32:14;7.60;;;2.15;;
59024;SDS011;44806;48.008;13.666;2023-05-28T07:34:41;4.68;;;1.65;;
59024;SDS011;44806;48.008;13.666;2023-05-28T07:37:07;6.25;;;1.63;;
59024;SDS011;44806;48.008;13.666;2023-05-28T07:39:34;6.60;;;1.90;;
59024;SDS011;44806;48.008;13.666;2023-05-28T07:42:02;7.43;;;1.50;;
59024;SDS011;44806;48.008;13.666;2023-05-28T07:44:30;6.15;;;1.90;;
59024;SDS011;44806;48.008;13.666;2023-05-28T07:46:57;7.03;;;1.52;;
59024;SDS011;44806;48.008;13.666;2023-05-28T07:49:24;6.57;;;1.58;;
59024;SDS011;44806;48.008;13.666;2023-05-28T07:51:51;7.03;;;2.08;;
59024;SDS011;44806;48.008;13.666;2023-05-28T07:54:18;7.85;;;2.33;;
59024;SDS011;44806;48.008;13.666;2023-05-28T07:56:45;6.82;;;2.10;;
59024;SDS011;44806;48.008;13.666;2023-05-28T07:59:13;7.43;;;1.55;;
59024;SDS011;44806;48.008;13.666;2023-05-28T08:01:42;7.07;;;1.85;;
59024;SDS011;44806;48.008;13.666;2023-05-28T08:04:09;5.85;;;1.58;;
59024;SDS011;44806;48.008;13.666;2023-05-28T08:06:36;4.80;;;1.63;;
59024;SDS011;44806;48.008;13.666;2023-05-28T08:09:03;5.43;;;1.52;;
59024;SDS011;44806;48.008;13.666;2023-05-28T08:11:30;6.90;;;2.13;;
59024;SDS011;44806;48.008;13.666;2023-05-28T08:13:57;7.57;;;2.00;;
59024;SDS011;44806;48.008;13.666;2023-05-28T08:16:24;8.70;;;2.22;;
59024;SDS011;44806;48.008;13.666;2023-05-28T08:18:52;6.05;;;2.17;;
59024;SDS011;44806;48.008;13.666;2023-05-28T08:21:19;5.72;;;1.83;;
59024;SDS011;44806;48.008;13.666;2023-05-28T08:23:46;5.05;;;1.45;;
59024;SDS011;44806;48.008;13.666;2023-05-28T08:26:13;7.07;;;1.85;;
59024;SDS011;44806;48.008;13.666;2023-05-28T08:28:40;6.32;;;1.90;;
59024;SDS011;44806;48.008;13.666;2023-05-28T08:31:07;6.25;;;2.53;;
59024;SDS011;44806;48.008;13.666;2023-05-28T08:33:34;5.80;;;2.05;;
59024;SDS011;44806;48.008;13.666;2023-05-28T08:36:02;5.90;;;1.90;;
59024;SDS011;44806;48.008;13.666;2023-05-28T08:38:31;7.43;;;2.13;;
59024;SDS011;44806;48.008;13.666;2023-05-28T08:40:58;5.60;;;2.05;;
59024;SDS011;44806;48.008;13.666;2023-05-28T08:43:27;8.05;;;2.05;;
59024;SDS011;44806;48.008;13.666;2023-05-28T08:45:54;6.22;;;2.33;;
59024;SDS011;44806;48.008;13.666;2023-05-28T08:48:22;7.85;;;2.53;;
59024;SDS011;44806;48.008;13.666;2023-05-28T08:50:49;8.05;;;2.15;;
59024;SDS011;44806;48.008;13.666;2023-05-28T08:53:19;7.18;;;2.25;;
59024;SDS011;44806;48.008;13.666;2023-05-28T08:55:48;7.68;;;2.20;;
59024;SDS011;44806;48.008;13.666;2023-05-28T08:58:16;5.93;;;1.90;;
59024;SDS011;44806;48.008;13.666;2023-05-28T09:00:43;6.18;;;2.42;;
59024;SDS011;44806;48.008;13.666;2023-05-28T09:03:10;8.18;;;2.63;;
59024;SDS011;44806;48.008;13.666;2023-05-28T09:05:37;7.38;;;2.33;;
59024;SDS011;44806;48.008;13.666;2023-05-28T09:08:05;7.13;;;2.80;;
59024;SDS011;44806;48.008;13.666;2023-05-28T09:10:34;7.22;;;2.80;;
59024;SDS011;44806;48.008;13.666;2023-05-28T09:13:01;7.38;;;2.60;;
59024;SDS011;44806;48.008;13.666;2023-05-28T09:15:29;9.77;;;2.50;;
59024;SDS011;44806;48.008;13.666;2023-05-28T09:17:58;8.40;;;2.47;;
59024;SDS011;44806;48.008;13.666;2023-05-28T09:20:25;8.02;;;2.75;;
59024;SDS011;44806;48.008;13.666;2023-05-28T09:22:57;6.82;;;2.30;;
59024;SDS011;44806;48.008;13.666;2023-05-28T09:25:26;5.95;;;1.88;;
59024;SDS011;44806;48.008;13.666;2023-05-28T09:27:54;6.50;;;2.17;;
59024;SDS011;44806;48.008;13.666;2023-05-28T09:30:22;7.45;;;2.55;;
59024;SDS011;44806;48.008;13.666;2023-05-28T09:32:55;8.10;;;2.70;;
59024;SDS011;44806;48.008;13.666;2023-05-28T09:35:26;5.78;;;2.08;;
59024;SDS011;44806;48.008;13.666;2023-05-28T09:38:02;9.02;;;2.47;;
59024;SDS011;44806;48.008;13.666;2023-05-28T09:40:29;7.47;;;2.72;;
59024;SDS011;44806;48.008;13.666;2023-05-28T09:42:58;7.68;;;2.45;;
59024;SDS011;44806;48.008;13.666;2023-05-28T09:45:30;5.90;;;2.33;;
59024;SDS011;44806;48.008;13.666;2023-05-28T09:47:57;8.93;;;2.38;;
59024;SDS011;44806;48.008;13.666;2023-05-28T09:50:24;9.48;;;2.72;;
59024;SDS011;44806;48.008;13.666;2023-05-28T09:52:52;6.20;;;2.38;;
59024;SDS011;44806;48.008;13.666;2023-05-28T09:55:23;7.53;;;2.47;;
59024;SDS011;44806;48.008;13.666;2023-05-28T09:57:54;8.15;;;3.08;;
59024;SDS011;44806;48.008;13.666;2023-05-28T10:00:30;4.90;;;2.13;;
59024;SDS011;44806;48.008;13.666;2023-05-28T10:03:00;6.15;;;2.00;;
59024;SDS011;44806;48.008;13.666;2023-05-28T10:05:36;5.97;;;2.28;;
59024;SDS011;44806;48.008;13.666;2023-05-28T10:08:07;7.30;;;2.50;;
59024;SDS011;44806;48.008;13.666;2023-05-28T10:10:40;8.25;;;2.75;;
59024;SDS011;44806;48.008;13.666;2023-05-28T10:13:12;6.85;;;2.30;;
59024;SDS011;44806;48.008;13.666;2023-05-28T10:15:39;7.43;;;2.90;;
59024;SDS011;44806;48.008;13.666;2023-05-28T10:18:06;6.82;;;2.50;;
59024;SDS011;44806;48.008;13.666;2023-05-28T10:20:34;5.72;;;2.30;;
59024;SDS011;44806;48.008;13.666;2023-05-28T10:23:01;8.95;;;2.95;;
59024;SDS011;44806;48.008;13.666;2023-05-28T10:25:29;6.47;;;2.63;;
59024;SDS011;44806;48.008;13.666;2023-05-28T10:27:57;6.43;;;2.10;;
59024;SDS011;44806;48.008;13.666;2023-05-28T10:30:34;8.13;;;3.08;;
59024;SDS011;44806;48.008;13.666;2023-05-28T10:33:05;5.78;;;2.40;;
59024;SDS011;44806;48.008;13.666;2023-05-28T10:35:33;6.45;;;2.47;;
59024;SDS011;44806;48.008;13.666;2023-05-28T10:38:05;18.05;;;2.83;;
59024;SDS011;44806;48.008;13.666;2023-05-28T10:40:33;7.47;;;2.15;;
59024;SDS011;44806;48.008;13.666;2023-05-28T10:43:00;9.13;;;3.55;;
59024;SDS011;44806;48.008;13.666;2023-05-28T10:45:35;7.28;;;2.38;;
59024;SDS011;44806;48.008;13.666;2023-05-28T10:48:03;6.88;;;2.88;;
59024;SDS011;44806;48.008;13.666;2023-05-28T10:50:31;6.90;;;2.72;;
59024;SDS011;44806;48.008;13.666;2023-05-28T10:53:04;6.22;;;2.33;;
59024;SDS011;44806;48.008;13.666;2023-05-28T10:55:47;6.45;;;2.22;;
59024;SDS011;44806;48.008;13.666;2023-05-28T10:58:22;6.72;;;2.50;;
59024;SDS011;44806;48.008;13.666;2023-05-28T11:00:52;9.45;;;2.50;;
59024;SDS011;44806;48.008;13.666;2023-05-28T11:03:37;7.07;;;2.50;;
59024;SDS011;44806;48.008;13.666;2023-05-28T11:06:06;6.22;;;2.38;;
59024;SDS011;44806;48.008;13.666;2023-05-28T11:08:37;6.15;;;2.85;;
59024;SDS011;44806;48.008;13.666;2023-05-28T11:11:06;5.78;;;2.42;;
59024;SDS011;44806;48.008;13.666;2023-05-28T11:13:33;7.05;;;2.83;;
59024;SDS011;44806;48.008;13.666;2023-05-28T11:16:08;7.03;;;2.53;;
59024;SDS011;44806;48.008;13.666;2023-05-28T11:18:36;6.97;;;2.67;;
59024;SDS011;44806;48.008;13.666;2023-05-28T11:21:04;7.78;;;3.08;;
59024;SDS011;44806;48.008;13.666;2023-05-28T11:23:32;6.00;;;2.60;;
59024;SDS011;44806;48.008;13.666;2023-05-28T11:26:01;6.13;;;2.30;;
59024;SDS011;44806;48.008;13.666;2023-05-28T11:28:29;6.00;;;2.58;;
59024;SDS011;44806;48.008;13.666;2023-05-28T11:30:57;7.20;;;3.22;;
59024;SDS011;44806;48.008;13.666;2023-05-28T11:33:28;7.05;;;2.47;;
59024;SDS011;44806;48.008;13.666;2023-05-28T11:35:58;7.68;;;3.00;;
59024;SDS011;44806;48.008;13.666;2023-05-28T11:38:26;6.50;;;2.35;;
59024;SDS011;44806;48.008;13.666;2023-05-28T11:40:59;6.20;;;2.90;;
59024;SDS011;44806;48.008;13.666;2023-05-28T11:43:27;6.32;;;3.20;;
59024;SDS011;44806;48.008;13.666;2023-05-28T11:45:57;8.60;;;3.33;;
59024;SDS011;44806;48.008;13.666;2023-05-28T11:48:25;10.18;;;3.35;;
59024;SDS011;44806;48.008;13.666;2023-05-28T11:50:58;8.65;;;2.80;;
59024;SDS011;44806;48.008;13.666;2023-05-28T11:53:37;6.82;;;2.97;;
59024;SDS011;44806;48.008;13.666;2023-05-28T11:56:05;7.30;;;2.90;;
59024;SDS011;44806;48.008;13.666;2023-05-28T11:58:32;7.63;;;2.92;;
59024;SDS011;44806;48.008;13.666;2023-05-28T12:01:02;6.93;;;3.20;;
59024;SDS011;44806;48.008;13.666;2023-05-28T12:03:29;6.38;;;2.63;;
59024;SDS011;44806;48.008;13.666;2023-05-28T12:05:57;6.47;;;2.88;;
59024;SDS011;44806;48.008;13.666;2023-05-28T12:08:25;6.43;;;2.72;;
59024;SDS011;44806;48.008;13.666;2023-05-28T12:10:52;5.70;;;2.70;;
59024;SDS011;44806;48.008;13.666;2023-05-28T12:13:29;7.32;;;3.03;;
59024;SDS011;44806;48.008;13.666;2023-05-28T12:16:05;6.80;;;2.75;;
59024;SDS011;44806;48.008;13.666;2023-05-28T12:18:33;6.53;;;2.65;;
59024;SDS011;44806;48.008;13.666;2023-05-28T12:21:01;7.32;;;3.05;;
59024;SDS011;44806;48.008;13.666;2023-05-28T12:23:28;7.05;;;2.72;;
59024;SDS011;44806;48.008;13.666;2023-05-28T12:25:56;6.18;;;2.72;;
59024;SDS011;44806;48.008;13.666;2023-05-28T12:28:23;6.65;;;2.72;;
59024;SDS011;44806;48.008;13.666;2023-05-28T12:30:50;5.80;;;2.72;;
59024;SDS011;44806;48.008;13.666;2023-05-28T12:33:19;6.57;;;2.85;;
59024;SDS011;44806;48.008;13.666;2023-05-28T12:35:47;5.65;;;2.80;;
59024;SDS011;44806;48.008;13.666;2023-05-28T12:38:15;6.47;;;2.88;;
59024;SDS011;44806;48.008;13.666;2023-05-28T12:40:44;6.78;;;2.70;;
59024;SDS011;44806;48.008;13.666;2023-05-28T12:43:11;6.47;;;2.67;;
59024;SDS011;44806;48.008;13.666;2023-05-28T12:45:38;5.45;;;2.78;;
59024;SDS011;44806;48.008;13.666;2023-05-28T12:48:05;6.32;;;3.00;;
59024;SDS011;44806;48.008;13.666;2023-05-28T12:50:33;6.45;;;2.97;;
59024;SDS011;44806;48.008;13.666;2023-05-28T12:53:00;5.50;;;2.75;;
59024;SDS011;44806;48.008;13.666;2023-05-28T12:55:31;6.70;;;2.90;;
59024;SDS011;44806;48.008;13.666;2023-05-28T12:57:58;6.88;;;3.05;;
59024;SDS011;44806;48.008;13.666;2023-05-28T13:00:24;9.27;;;2.67;;
59024;SDS011;44806;48.008;13.666;2023-05-28T13:02:51;7.45;;;3.10;;
59024;SDS011;44806;48.008;13.666;2023-05-28T13:05:18;6.43;;;3.20;;
59024;SDS011;44806;48.008;13.666;2023-05-28T13:07:45;5.85;;;2.80;;
59024;SDS011;44806;48.008;13.666;2023-05-28T13:10:12;7.43;;;2.83;;
59024;SDS011;44806;48.008;13.666;2023-05-28T13:12:41;7.80;;;2.80;;
59024;SDS011;44806;48.008;13.666;2023-05-28T13:15:08;7.22;;;3.10;;
59024;SDS011;44806;48.008;13.666;2023-05-28T13:17:36;6.18;;;2.95;;
59024;SDS011;44806;48.008;13.666;2023-05-28T13:20:03;5.93;;;2.60;;
59024;SDS011;44806;48.008;13.666;2023-05-28T13:22:35;6.43;;;2.97;;
59024;SDS011;44806;48.008;13.666;2023-05-28T13:25:02;6.90;;;2.88;;
59024;SDS011;44806;48.008;13.666;2023-05-28T13:27:29;7.10;;;2.70;;
59024;SDS011;44806;48.008;13.666;2023-05-28T13:29:58;7.10;;;2.88;;
59024;SDS011;44806;48.008;13.666;2023-05-28T13:32:25;7.32;;;2.45;;
59024;SDS011;44806;48.008;13.666;2023-05-28T13:34:52;5.72;;;2.70;;
59024;SDS011;44806;48.008;13.666;2023-05-28T13:37:19;6.88;;;2.70;;
59024;SDS011;44806;48.008;13.666;2023-05-28T13:39:46;6.68;;;2.90;;
59024;SDS011;44806;48.008;13.666;2023-05-28T13:42:13;5.43;;;2.58;;
59024;SDS011;44806;48.008;13.666;2023-05-28T13:44:44;5.53;;;2.80;;
59024;SDS011;44806;48.008;13.666;2023-05-28T13:47:13;5.45;;;2.80;;
59024;SDS011;44806;48.008;13.666;2023-05-28T13:49:42;5.68;;;2.63;;
59024;SDS011;44806;48.008;13.666;2023-05-28T13:52:09;6.13;;;2.60;;
59024;SDS011;44806;48.008;13.666;2023-05-28T13:54:36;6.90;;;2.95;;
59024;SDS011;44806;48.008;13.666;2023-05-28T13:57:06;6.25;;;3.20;;
59024;SDS011;44806;48.008;13.666;2023-05-28T13:59:33;5.88;;;2.53;;
59024;SDS011;44806;48.008;13.666;2023-05-28T14:02:00;6.70;;;2.60;;
59024;SDS011;44806;48.008;13.666;2023-05-28T14:04:28;6.40;;;2.72;;
59024;SDS011;44806;48.008;13.666;2023-05-28T14:06:55;5.57;;;2.53;;
59024;SDS011;44806;48.008;13.666;2023-05-28T14:09:22;6.53;;;2.88;;
59024;SDS011;44806;48.008;13.666;2023-05-28T14:11:49;5.50;;;2.50;;
59024;SDS011;44806;48.008;13.666;2023-05-28T14:14:15;5.10;;;2.50;;
59024;SDS011;44806;48.008;13.666;2023-05-28T14:16:42;5.95;;;2.80;;
59024;SDS011;44806;48.008;13.666;2023-05-28T14:19:09;4.90;;;2.40;;
59024;SDS011;44806;48.008;13.666;2023-05-28T14:21:38;7.20;;;2.80;;
59024;SDS011;44806;48.008;13.666;2023-05-28T14:24:05;5.28;;;2.75;;
59024;SDS011;44806;48.008;13.666;2023-05-28T14:26:32;5.32;;;2.70;;
59024;SDS011;44806;48.008;13.666;2023-05-28T14:28:59;5.63;;;2.90;;
59024;SDS011;44806;48.008;13.666;2023-05-28T14:31:26;6.10;;;2.70;;
59024;SDS011;44806;48.008;13.666;2023-05-28T14:33:53;5.97;;;3.05;;
59024;SDS011;44806;48.008;13.666;2023-05-28T14:36:20;6.13;;;2.80;;
59024;SDS011;44806;48.008;13.666;2023-05-28T14:38:48;6.32;;;2.75;;
59024;SDS011;44806;48.008;13.666;2023-05-28T14:41:15;6.55;;;2.95;;